This is the latest recevied weather packets stored in our database for station/object EB1HRW. If no packets are shown the sender has not sent any weather packets the latest 10 day(s).
| Time | Temp. | Humidity | Pressure | Rain* | Wind** | Luminosity | Snow |
|---|---|---|---|---|---|---|---|
| 1777831757 | 17.78° C | 52% | 1009.4 hPa | 0 mm | - | - | - |
| 1777830857 | 18.33° C | 53% | 1009.3 hPa | 0 mm | - | - | - |
| 1777829958 | 18.33° C | 52% | 1009.3 hPa | 0 mm | - | - | - |
| 1777829057 | 18.33° C | 53% | 1009.2 hPa | 0 mm | - | - | - |
| 1777828157 | 18.33° C | 54% | 1009.2 hPa | 0 mm | - | - | - |
| 1777827258 | 17.78° C | 55% | 1009.2 hPa | 0 mm | - | - | - |
| 1777825457 | 17.78° C | 59% | 1009.2 hPa | 0 mm | - | - | - |
| 1777824558 | 18.33° C | 60% | 1009.1 hPa | 0 mm | - | - | - |
| 1777823657 | 17.78° C | 62% | 1009 hPa | 0 mm | - | - | - |
| 1777822757 | 17.78° C | 61% | 1009.1 hPa | 0 mm | - | - | - |
| 1777821858 | 17.78° C | 64% | 1009.1 hPa | 0 mm | - | - | - |
| 1777820957 | 17.22° C | 67% | 1009.3 hPa | 0 mm | - | - | - |
| 1777820057 | 16.67° C | 72% | 1009.4 hPa | 0 mm | - | - | - |
| 1777816323 | 14.44° C | 77% | 1010.6 hPa | 0.76 mm | - | - | - |
| 1777816272 | 14.44° C | 77% | 1010.6 hPa | 0.76 mm | - | - | - |
| 1777816236 | 14.44° C | 77% | 1010.6 hPa | 0.76 mm | - | - | - |
| 1777815335 | 14.44° C | 82% | 1010.7 hPa | 0.76 mm | - | - | - |
| 1777803749 | 12.22° C | 72% | 1012.4 hPa | 0 mm | - | - | - |
| 1777802850 | 12.22° C | 71% | 1012.5 hPa | 0 mm | - | - | - |
| 1777801951 | 12.22° C | 72% | 1012.6 hPa | 0 mm | - | - | - |
| 1777801050 | 12.22° C | 73% | 1012.6 hPa | 0 mm | - | - | - |
| 1777800151 | 12.22° C | 74% | 1012.7 hPa | 0 mm | - | - | - |
| 1777799250 | 11.67° C | 74% | 1012.7 hPa | 0 mm | - | - | - |
| 1777798350 | 11.67° C | 74% | 1012.8 hPa | 0 mm | - | - | - |
| 1777797449 | 11.67° C | 74% | 1012.9 hPa | 0 mm | - | - | - |
* Rain latest hour (hover to see other rain measurements)
** Current wind speed in m/s (hover to see current wind gust speed)